Archival Weather

Vermilion Rgnl

Danville, Illinois (KDNV)

Report from: Tuesday, March 26, 2024 7:55 PM CDT
Current time: Sunday, July 14, 2024 5:56 AM CDT

Current weather – Weather history – Daily summaries
Weather forecast

Temperature5.0°C (41.0°F)
Wind chill-0.3°C (31.4°F)
Dew point0.6°C (33.1°F)
Winds 19 kts (9.8 m/s, 21.9 mph) West-Southwest (240°)
Wind gusts 22 kts (11.3 m/s, 25.3 mph)
Visibility10 mi. (16.1 km)
Clouds Ceiling: Overcast 2,300 ft. (701 m)
Altimeter29.79 in.Hg (1009 mB)
Relative humidity73 %
Density altitude-961 ft. (-293 m)
Remarks Fully automated report
Automated weather observing station with precipitation discriminator
Flight conditions Marginal Visual Meteorological Conditions
Raw dataKDNV 270055Z AUTO 24019G22KT 10SM OVC023 05/01 A2979 RMK AO2 T00500006
An error has occurred. This application may no longer respond until reloaded. Reload 🗙